• Join FlightAware (Why Join?)
  • Login
  • US Flag 
05:25AM EDT


 

Airport Tracker/Info


-or-


 

Live Flight TrackerFlight Track Log ✈ AMF1026 ✈ 16-Jun-2014 ✈ KALB - KCVG

Flight Track Log - Related Links

Times and Time Zones

All times are in EDT time to prevent confusion due to time zone crossing. See the AMF1026 flight status page for this flight to view local times or setup timezone preferences in your user account.

Time Position Orientation Groundspeed Altitude Reporting Facility
EDT Latitude Longitude Course Direction KTS MPH feet Rate Location/Type
09:04PM 42.7189 -73.8039 253° West 142 163 1,800  Level Boston Center
09:05PM 42.7083 -73.8497 253° West 149 171 3,600 1,800 Climbing Boston Center
09:06PM 42.7003 -73.9058 259° West 143 165 5,600 1,800 Climbing Boston Center
09:07PM 42.6878 -73.9611 253° West 143 165 7,400 1,320 Climbing Boston Center
09:08PM 42.6714 -74.0172 248° West 157 181 8,400 1,140 Climbing Boston Center
09:09PM 42.6536 -74.0817 249° West 176 203 9,800 1,320 Climbing Boston Center
09:10PM 42.6442 -74.1464 259° West 176 203 11,200 1,500 Climbing Boston Center
09:11PM 42.6269 -74.2136 251° West 177 204 12,900 1,380 Climbing Boston Center
09:12PM 42.6131 -74.2750 253° West 173 199 14,100 1,200 Climbing Boston Center
09:13PM 42.5983 -74.3328 251° West 166 191 15,400 900 Climbing Boston Center
09:15PM 42.5847 -74.3942 253° West 170 196 16,000 240 Climbing Boston Center
09:16PM 42.5633 -74.4736 250° West 211 243 16,000  Level Boston Center
09:17PM 42.5453 -74.5528 253° West 219 252 16,000  Level Boston Center
09:18PM 42.5281 -74.6361 254° West 229 264 16,000  Level Boston Center
09:19PM 42.5114 -74.7208 255° West 230 265 16,000  Level Boston Center
09:20PM 42.4958 -74.8092 257° West 232 267 16,000  Level Boston Center
09:21PM 42.4808 -74.8933 256° West 232 267 16,000  Level Boston Center
09:22PM 42.4658 -74.9797 257° West 235 270 16,000  Level Boston Center
09:23PM 42.4489 -75.0642 255° West 234 269 16,000  Level Boston Center
09:24PM 42.4292 -75.1472 252° West 234 269 16,000  Level Boston Center
09:25PM 42.4228 -75.2311 264° West 227 261 16,000  Level Boston Center
09:26PM 42.4292 -75.3158 276° West 227 261 16,000  Level Boston Center
09:27PM 42.4142 -75.3958 256° West 220 253 16,000  Level Boston Center
09:28PM 42.3767 -75.4681 235° Southwest 231 266 16,000  Level Boston Center
09:29PM 42.3278 -75.5272 222° Southwest 234 269 16,000  Level Boston Center
09:30PM 42.2631 -75.5911 216° Southwest 239 275 16,000  Level Boston Center
09:31PM 42.2158 -75.6511 223° Southwest 238 274 16,000  Level Boston Center
09:32PM 42.2006 -75.7408 257° West 229 264 16,000  Level Boston Center
09:33PM 42.1889 -75.8222 259° West 230 265 16,000  Level Boston Center
09:34PM 42.1803 -75.9064 262° West 229 264 16,000  Level Boston Center
09:35PM 42.1714 -75.9889 262° West 227 261 16,000  Level Boston Center
09:36PM 42.1628 -76.0747 262° West 228 262 16,000  Level Boston Center
09:37PM 42.1564 -76.1481 263° West 229 264 16,000  Level Cleveland Center
09:38PM 42.1294 -76.2267 245° Southwest 233 268 16,000  Level Cleveland Center
09:38PM 42.1097 -76.2833 245° Southwest 241 277 16,000  Level New York Center
09:39PM 42.0833 -76.3594 245° Southwest 241 277 16,000  Level New York Center
09:40PM 42.0567 -76.4381 245° Southwest 241 277 16,000  Level New York Center
09:41PM 42.0300 -76.5169 246° West 236 272 16,000  Level New York Center
09:42PM 42.0014 -76.5925 243° Southwest 231 266 16,000  Level New York Center
09:43PM 41.9744 -76.6739 246° West 231 266 16,000  Level New York Center
09:44PM 41.9619 -76.7100 245° Southwest 232 267 16,000  Level Cleveland Center
09:45PM 41.9342 -76.7886 245° Southwest 232 267 16,000  Level Cleveland Center
09:46PM 41.9056 -76.8656 243° Southwest 232 267 16,000  Level Cleveland Center
09:47PM 41.8761 -76.9464 244° Southwest 234 269 16,000 -60 Level Cleveland Center
09:48PM 41.8481 -77.0261 245° Southwest 235 270 15,900 -60 Descending Cleveland Center
09:49PM 41.8211 -77.1053 245° Southwest 235 270 15,900  Level Cleveland Center
09:50PM 41.7942 -77.1844 245° Southwest 235 270 15,900  Level Cleveland Center
09:51PM 41.7669 -77.2658 246° West 235 270 15,900  Level Cleveland Center
09:52PM 41.7350 -77.3583 245° Southwest 234 269 15,900  Level Cleveland Center
09:53PM 41.7111 -77.4400 249° West 234 269 15,900  Level Cleveland Center
09:54PM 41.6917 -77.5108 250° West 233 268 16,000  Climbing Cleveland Center
09:55PM 41.6614 -77.6069 247° West 233 268 16,000  Level Cleveland Center
09:56PM 41.6397 -77.6867 250° West 233 268 16,000  Level Cleveland Center
09:57PM 41.6139 -77.7639 246° West 232 267 16,000  Level Cleveland Center
09:58PM 41.5886 -77.8453 247° West 235 270 16,000  Level Cleveland Center
09:59PM 41.5631 -77.9272 247° West 236 272 16,000  Level Cleveland Center
10:00PM 41.5378 -78.0092 248° West 240 276 16,000  Level Cleveland Center
10:01PM 41.5147 -78.0914 249° West 240 276 16,000  Level Cleveland Center
10:02PM 41.4861 -78.1897 249° West 240 276 16,000  Level Cleveland Center
10:03PM 41.4608 -78.2697 247° West 239 275 16,000  Level Cleveland Center
10:04PM 41.4356 -78.3486 247° West 238 274 16,000  Level Cleveland Center
10:05PM 41.4103 -78.4278 247° West 237 273 16,000  Level Cleveland Center
10:06PM 41.3833 -78.5067 246° West 238 274 16,000  Level Cleveland Center
10:07PM 41.3556 -78.5972 248° West 238 274 16,000  Level Cleveland Center
10:08PM 41.3308 -78.6767 248° West 236 272 16,000  Level Cleveland Center
10:09PM 41.3042 -78.7556 246° West 236 272 16,000  Level Cleveland Center
10:10PM 41.2783 -78.8342 246° West 236 272 16,000  Level Cleveland Center
10:12PM 41.2539 -78.9144 248° West 238 274 16,000  Level Cleveland Center
10:13PM 41.2286 -78.9914 246° West 230 265 16,000  Level Cleveland Center
10:14PM 41.1992 -79.0872 248° West 231 266 16,000  Level Cleveland Center
10:15PM 41.1750 -79.1675 248° West 232 267 16,000  Level Cleveland Center
10:16PM 41.1506 -79.2467 248° West 233 268 16,000  Level Cleveland Center
10:17PM 41.1267 -79.3292 249° West 235 270 16,000  Level Cleveland Center
10:18PM 41.1011 -79.4069 246° West 231 266 16,000  Level Cleveland Center
10:19PM 41.0756 -79.4853 247° West 231 266 16,000  Level Cleveland Center
10:20PM 41.0492 -79.5642 246° West 230 265 16,000  Level Cleveland Center
10:21PM 41.0233 -79.6422 246° West 231 266 16,000  Level Cleveland Center
10:22PM 40.9986 -79.7219 248° West 231 266 16,000  Level Cleveland Center
10:23PM 40.9650 -79.8169 245° Southwest 236 272 16,000  Level Cleveland Center
10:24PM 40.9372 -79.8947 245° Southwest 235 270 16,000  Level Cleveland Center
10:25PM 40.9103 -79.9717 245° Southwest 232 267 16,000  Level Cleveland Center
10:26PM 40.8811 -80.0508 244° Southwest 236 272 16,000  Level Cleveland Center
10:27PM 40.8503 -80.1389 245° Southwest 237 273 16,000  Level Cleveland Center
10:28PM 40.8225 -80.2158 245° Southwest 235 270 16,000  Level Cleveland Center
10:29PM 40.7872 -80.2900 238° Southwest 239 275 16,000  Level Cleveland Center
10:30PM 40.7544 -80.3592 238° Southwest 238 274 16,000  Level Cleveland Center
10:31PM 40.7169 -80.4358 237° Southwest 245 282 16,000  Level Cleveland Center
10:32PM 40.6722 -80.5225 236° Southwest 244 281 16,000  Level Cleveland Center
10:33PM 40.6342 -80.5992 237° Southwest 245 282 16,000  Level Cleveland Center
10:34PM 40.5958 -80.6728 236° Southwest 243 280 16,000  Level Cleveland Center
10:35PM 40.5614 -80.7381 235° Southwest 244 281 16,000  Level Cleveland Center
10:36PM 40.5228 -80.8108 235° Southwest 244 281 16,000  Level Cleveland Center
10:37PM 40.4839 -80.8831 235° Southwest 243 280 16,000  Level Cleveland Center
10:38PM 40.4378 -80.9714 236° Southwest 244 281 16,000  Level Cleveland Center
10:39PM 40.3986 -81.0436 235° Southwest 244 281 16,000  Level Cleveland Center
10:40PM 40.3567 -81.1175 233° Southwest 251 289 16,000  Level Cleveland Center
10:41PM 40.3186 -81.1906 236° Southwest 246 283 16,000  Level Cleveland Center
10:42PM 40.2789 -81.2631 234° Southwest 246 283 16,000  Level Cleveland Center
10:43PM 40.2400 -81.3356 235° Southwest 245 282 16,000  Level Cleveland Center
10:44PM 40.2011 -81.4100 236° Southwest 248 285 16,000  Level Cleveland Center
10:45PM 40.1711 -81.4906 244° Southwest 247 284 16,000  Level Cleveland Center
10:46PM 40.1447 -81.5725 247° West 247 284 16,000  Level Cleveland Center
10:47PM 40.1136 -81.6733 248° West 248 285 16,000  Level Cleveland Center
10:48PM 40.0897 -81.7489 248° West 248 285 16,000  Level Cleveland Center
10:49PM 40.0625 -81.8333 247° West 250 288 16,000  Level Cleveland Center
10:50PM 40.0381 -81.9181 249° West 251 289 16,000  Level Cleveland Center
10:51PM 40.0106 -82.0006 247° West 250 288 16,000  Level Cleveland Center
10:52PM 39.9811 -82.1022 249° West 250 288 16,000  Level Cleveland Center
10:53PM 39.9517 -82.1858 245° Southwest 252 290 16,000  Level Cleveland Center
10:54PM 39.9222 -82.2694 245° Southwest 253 291 16,000  Level Cleveland Center
10:55PM 39.8928 -82.3517 245° Southwest 252 290 16,000 -60 Level Cleveland Center
10:56PM 39.8636 -82.4342 245° Southwest 252 290 15,900 -60 Descending Cleveland Center
10:57PM 39.8364 -82.5183 247° West 253 291 15,900  Level Cleveland Center
10:59PM 39.8075 -82.5994 245° Southwest 252 290 15,900  Level Cleveland Center
11:00PM 39.7769 -82.6803 244° Southwest 250 288 15,900  Level Cleveland Center
11:01PM 39.7464 -82.7631 244° Southwest 251 289 15,900  Level Cleveland Center
11:02PM 39.7014 -82.8772 243° Southwest 250 288 15,900  Level Indianapolis Center
11:03PM 39.6692 -82.9581 243° Southwest 250 288 15,900 -60 Level Indianapolis Center
11:04PM 39.6422 -83.0267 243° Southwest 252 290 15,800 -240 Descending Indianapolis Center
11:04PM 39.6389 -83.0397 252° West 252 290 15,700 -960 Descending Indianapolis Center
11:05PM 39.6006 -83.1314 242° Southwest 269 310 14,700 -900 Descending Indianapolis Center
11:05PM 39.5967 -83.1428 246° West 257 296 14,700 -600 Level Indianapolis Center
11:06PM 39.5708 -83.2214 247° West 273 314 14,100 -720 Descending Indianapolis Center
11:06PM 39.5653 -83.2328 238° Southwest 266 306 14,000 -1,200 Descending Indianapolis Center
11:07PM 39.5408 -83.3117 248° West 275 316 12,900 -1,200 Descending Indianapolis Center
11:07PM 39.5347 -83.3239 237° Southwest 270 311 12,800 -900 Descending Indianapolis Center
11:08PM 39.5050 -83.4183 248° West 276 318 11,800 -960 Descending Indianapolis Center
11:09PM 39.4786 -83.4939 246° West 260 299 11,100 -900 Descending Indianapolis Center
11:09PM 39.4744 -83.5064 247° West 272 313 10,900 -1,500 Descending Indianapolis Center
11:10PM 39.4489 -83.5811 246° West 273 314 9,600 -1,500 Descending Indianapolis Center
11:10PM 39.4422 -83.5939 236° Southwest 269 310 9,400 -900 Descending Indianapolis Center
11:11PM 39.4125 -83.6700 243° Southwest 276 318 8,700 -840 Descending Indianapolis Center
11:11PM 39.4064 -83.6839 240° Southwest 276 318 8,600 -600 Descending Indianapolis Center
11:12PM 39.3761 -83.7692 245° Southwest 267 307 8,000 -300 Descending Indianapolis Center
11:13PM 39.3444 -83.8550 245° Southwest 266 306 8,000  Level Indianapolis Center
11:14PM 39.3133 -83.9386 244° Southwest 264 304 8,000  Level Indianapolis Center
11:15PM 39.2744 -84.0361 243° Southwest 260 299 8,000  Level Indianapolis Center
11:16PM 39.2422 -84.1161 243° Southwest 254 292 8,000  Level Indianapolis Center
11:17PM 39.2128 -84.1986 245° Southwest 254 292 8,000  Level Indianapolis Center
11:18PM 39.1817 -84.2800 244° Southwest 254 292 8,000  Level Indianapolis Center
11:19PM 39.1486 -84.3581 241° Southwest 254 292 8,000  Level Indianapolis Center
11:20PM 39.1183 -84.4403 245° Southwest 254 292 8,000 -300 Level Indianapolis Center
11:21PM 39.0758 -84.5103 232° Southwest 253 291 7,500 -540 Descending Indianapolis Center
11:22PM 39.0100 -84.5439 202° Southwest 251 289 7,000 -780 Descending Indianapolis Center
11:23PM 38.9603 -84.5622 196° South 200 230 6,000 -1,440 Descending Indianapolis Center
11:24PM 38.9058 -84.5711 187° South 185 213 4,100 -1,680 Descending Indianapolis Center
11:25PM 38.9333 -84.6500 294° West 188 216 2,800 -1,140 Descending Cincinnati TRACON
11:26PM 38.9667 -84.6500 360° North 147 169 2,000 -840 Descending Cincinnati TRACON
11:27PM 39.0167 -84.6500 360° North 139 160 1,200 -840 Descending Cincinnati TRACON